sensor_id;sensor_type;location;lat;lon;timestamp;P1;durP1;ratioP1;P2;durP2;ratioP2
13388;SDS011;6764;53.250;10.410;2022-07-18T00:01:56;7.65;;;3.30;;
13388;SDS011;6764;53.250;10.410;2022-07-18T00:04:23;4.78;;;3.25;;
13388;SDS011;6764;53.250;10.410;2022-07-18T00:06:50;5.15;;;3.70;;
13388;SDS011;6764;53.250;10.410;2022-07-18T00:09:16;4.47;;;3.55;;
13388;SDS011;6764;53.250;10.410;2022-07-18T00:11:42;6.28;;;3.67;;
13388;SDS011;6764;53.250;10.410;2022-07-18T00:14:08;5.32;;;3.80;;
13388;SDS011;6764;53.250;10.410;2022-07-18T00:16:34;6.22;;;4.40;;
13388;SDS011;6764;53.250;10.410;2022-07-18T00:19:00;5.75;;;4.13;;
13388;SDS011;6764;53.250;10.410;2022-07-18T00:21:27;3.90;;;3.50;;
13388;SDS011;6764;53.250;10.410;2022-07-18T00:23:52;6.35;;;3.97;;
13388;SDS011;6764;53.250;10.410;2022-07-18T00:26:18;5.57;;;3.50;;
13388;SDS011;6764;53.250;10.410;2022-07-18T00:28:44;3.90;;;3.20;;
13388;SDS011;6764;53.250;10.410;2022-07-18T00:31:10;4.20;;;3.50;;
13388;SDS011;6764;53.250;10.410;2022-07-18T00:33:36;3.73;;;3.17;;
13388;SDS011;6764;53.250;10.410;2022-07-18T00:36:02;4.10;;;3.38;;
13388;SDS011;6764;53.250;10.410;2022-07-18T00:38:27;4.53;;;3.50;;
13388;SDS011;6764;53.250;10.410;2022-07-18T00:40:53;4.70;;;3.40;;
13388;SDS011;6764;53.250;10.410;2022-07-18T00:43:18;3.63;;;3.10;;
13388;SDS011;6764;53.250;10.410;2022-07-18T00:45:45;4.67;;;3.30;;
13388;SDS011;6764;53.250;10.410;2022-07-18T00:48:12;7.37;;;4.23;;
13388;SDS011;6764;53.250;10.410;2022-07-18T00:50:38;4.10;;;3.35;;
13388;SDS011;6764;53.250;10.410;2022-07-18T00:53:04;6.10;;;3.30;;
13388;SDS011;6764;53.250;10.410;2022-07-18T00:55:30;3.97;;;3.37;;
13388;SDS011;6764;53.250;10.410;2022-07-18T00:57:57;3.83;;;3.20;;
13388;SDS011;6764;53.250;10.410;2022-07-18T01:00:23;5.00;;;3.42;;
13388;SDS011;6764;53.250;10.410;2022-07-18T01:03:07;6.50;;;3.33;;
13388;SDS011;6764;53.250;10.410;2022-07-18T01:05:33;3.50;;;3.20;;
13388;SDS011;6764;53.250;10.410;2022-07-18T01:07:59;3.03;;;2.83;;
13388;SDS011;6764;53.250;10.410;2022-07-18T01:10:25;4.33;;;3.93;;
13388;SDS011;6764;53.250;10.410;2022-07-18T01:12:50;3.53;;;3.20;;
13388;SDS011;6764;53.250;10.410;2022-07-18T01:15:16;4.70;;;3.50;;
13388;SDS011;6764;53.250;10.410;2022-07-18T01:17:42;5.83;;;3.90;;
13388;SDS011;6764;53.250;10.410;2022-07-18T01:20:07;3.67;;;3.37;;
13388;SDS011;6764;53.250;10.410;2022-07-18T01:22:34;3.80;;;3.20;;
13388;SDS011;6764;53.250;10.410;2022-07-18T01:24:59;3.97;;;3.30;;
13388;SDS011;6764;53.250;10.410;2022-07-18T01:27:25;4.77;;;3.20;;
13388;SDS011;6764;53.250;10.410;2022-07-18T01:29:51;5.23;;;3.50;;
13388;SDS011;6764;53.250;10.410;2022-07-18T01:32:18;4.57;;;3.63;;
13388;SDS011;6764;53.250;10.410;2022-07-18T01:34:45;3.90;;;3.40;;
13388;SDS011;6764;53.250;10.410;2022-07-18T01:37:12;4.20;;;3.60;;
13388;SDS011;6764;53.250;10.410;2022-07-18T01:39:38;4.53;;;2.93;;
13388;SDS011;6764;53.250;10.410;2022-07-18T01:42:05;3.70;;;3.40;;
13388;SDS011;6764;53.250;10.410;2022-07-18T01:44:32;5.57;;;3.53;;
13388;SDS011;6764;53.250;10.410;2022-07-18T01:47:00;5.43;;;3.50;;
13388;SDS011;6764;53.250;10.410;2022-07-18T01:49:26;4.27;;;3.70;;
13388;SDS011;6764;53.250;10.410;2022-07-18T01:51:54;3.77;;;3.37;;
13388;SDS011;6764;53.250;10.410;2022-07-18T01:54:20;4.67;;;3.37;;
13388;SDS011;6764;53.250;10.410;2022-07-18T01:56:47;5.00;;;3.60;;
13388;SDS011;6764;53.250;10.410;2022-07-18T01:59:12;7.90;;;3.83;;
13388;SDS011;6764;53.250;10.410;2022-07-18T02:01:38;4.83;;;3.30;;
13388;SDS011;6764;53.250;10.410;2022-07-18T02:04:04;4.63;;;3.60;;
13388;SDS011;6764;53.250;10.410;2022-07-18T02:06:29;6.23;;;3.93;;
13388;SDS011;6764;53.250;10.410;2022-07-18T02:08:55;4.23;;;3.33;;
13388;SDS011;6764;53.250;10.410;2022-07-18T02:11:20;3.80;;;3.40;;
13388;SDS011;6764;53.250;10.410;2022-07-18T02:13:46;7.00;;;3.83;;
13388;SDS011;6764;53.250;10.410;2022-07-18T02:16:12;4.83;;;3.80;;
13388;SDS011;6764;53.250;10.410;2022-07-18T02:18:37;4.00;;;3.60;;
13388;SDS011;6764;53.250;10.410;2022-07-18T02:21:03;4.10;;;3.70;;
13388;SDS011;6764;53.250;10.410;2022-07-18T02:23:29;4.07;;;3.67;;
13388;SDS011;6764;53.250;10.410;2022-07-18T02:25:54;4.60;;;3.93;;
13388;SDS011;6764;53.250;10.410;2022-07-18T02:28:21;5.07;;;3.77;;
13388;SDS011;6764;53.250;10.410;2022-07-18T02:30:47;4.73;;;4.33;;
13388;SDS011;6764;53.250;10.410;2022-07-18T02:33:13;4.53;;;3.60;;
13388;SDS011;6764;53.250;10.410;2022-07-18T02:35:40;4.57;;;3.87;;
13388;SDS011;6764;53.250;10.410;2022-07-18T02:38:06;6.17;;;3.73;;
13388;SDS011;6764;53.250;10.410;2022-07-18T02:40:32;5.83;;;4.10;;
13388;SDS011;6764;53.250;10.410;2022-07-18T02:42:58;5.07;;;3.90;;
13388;SDS011;6764;53.250;10.410;2022-07-18T02:45:23;5.10;;;3.87;;
13388;SDS011;6764;53.250;10.410;2022-07-18T02:47:49;6.37;;;4.20;;
13388;SDS011;6764;53.250;10.410;2022-07-18T02:50:15;7.70;;;4.00;;
13388;SDS011;6764;53.250;10.410;2022-07-18T02:52:41;5.17;;;3.93;;
13388;SDS011;6764;53.250;10.410;2022-07-18T02:55:08;5.43;;;3.73;;
13388;SDS011;6764;53.250;10.410;2022-07-18T02:57:34;5.83;;;3.70;;
13388;SDS011;6764;53.250;10.410;2022-07-18T03:00:00;5.93;;;3.90;;
13388;SDS011;6764;53.250;10.410;2022-07-18T03:02:28;5.73;;;4.40;;
13388;SDS011;6764;53.250;10.410;2022-07-18T03:04:53;4.93;;;3.93;;
13388;SDS011;6764;53.250;10.410;2022-07-18T03:07:19;4.33;;;3.77;;
13388;SDS011;6764;53.250;10.410;2022-07-18T03:09:44;4.20;;;3.80;;
13388;SDS011;6764;53.250;10.410;2022-07-18T03:12:10;4.67;;;3.90;;
13388;SDS011;6764;53.250;10.410;2022-07-18T03:14:35;6.70;;;4.27;;
13388;SDS011;6764;53.250;10.410;2022-07-18T03:17:01;5.30;;;4.20;;
13388;SDS011;6764;53.250;10.410;2022-07-18T03:19:27;4.37;;;3.70;;
13388;SDS011;6764;53.250;10.410;2022-07-18T03:21:52;6.40;;;4.10;;
13388;SDS011;6764;53.250;10.410;2022-07-18T03:24:18;5.00;;;3.80;;
13388;SDS011;6764;53.250;10.410;2022-07-18T03:26:44;4.40;;;4.00;;
13388;SDS011;6764;53.250;10.410;2022-07-18T03:29:10;8.77;;;4.30;;
13388;SDS011;6764;53.250;10.410;2022-07-18T03:31:37;4.43;;;3.70;;
13388;SDS011;6764;53.250;10.410;2022-07-18T03:34:02;7.83;;;4.50;;
13388;SDS011;6764;53.250;10.410;2022-07-18T03:36:29;4.20;;;3.90;;
13388;SDS011;6764;53.250;10.410;2022-07-18T03:38:54;5.57;;;3.97;;
13388;SDS011;6764;53.250;10.410;2022-07-18T03:41:20;5.20;;;3.87;;
13388;SDS011;6764;53.250;10.410;2022-07-18T03:43:46;7.03;;;3.97;;
13388;SDS011;6764;53.250;10.410;2022-07-18T03:46:11;4.37;;;3.90;;
13388;SDS011;6764;53.250;10.410;2022-07-18T03:48:37;4.57;;;4.17;;
13388;SDS011;6764;53.250;10.410;2022-07-18T03:51:02;4.97;;;4.10;;
13388;SDS011;6764;53.250;10.410;2022-07-18T03:53:29;7.77;;;4.10;;
13388;SDS011;6764;53.250;10.410;2022-07-18T03:55:55;4.20;;;3.80;;
13388;SDS011;6764;53.250;10.410;2022-07-18T03:58:20;4.97;;;4.17;;
13388;SDS011;6764;53.250;10.410;2022-07-18T04:00:46;5.20;;;4.03;;
13388;SDS011;6764;53.250;10.410;2022-07-18T04:03:12;4.40;;;4.00;;
13388;SDS011;6764;53.250;10.410;2022-07-18T04:05:37;5.03;;;3.80;;
13388;SDS011;6764;53.250;10.410;2022-07-18T04:08:03;4.83;;;4.00;;
13388;SDS011;6764;53.250;10.410;2022-07-18T04:10:29;5.40;;;4.30;;
13388;SDS011;6764;53.250;10.410;2022-07-18T04:12:55;5.60;;;4.23;;
13388;SDS011;6764;53.250;10.410;2022-07-18T04:15:22;5.00;;;4.33;;
13388;SDS011;6764;53.250;10.410;2022-07-18T04:17:49;7.60;;;4.03;;
13388;SDS011;6764;53.250;10.410;2022-07-18T04:20:15;6.03;;;3.73;;
13388;SDS011;6764;53.250;10.410;2022-07-18T04:22:55;6.40;;;3.83;;
13388;SDS011;6764;53.250;10.410;2022-07-18T04:25:22;6.50;;;4.50;;
13388;SDS011;6764;53.250;10.410;2022-07-18T04:27:49;6.63;;;3.90;;
13388;SDS011;6764;53.250;10.410;2022-07-18T04:30:17;5.80;;;4.40;;
13388;SDS011;6764;53.250;10.410;2022-07-18T04:32:44;5.40;;;3.83;;
13388;SDS011;6764;53.250;10.410;2022-07-18T04:35:10;5.13;;;4.10;;
13388;SDS011;6764;53.250;10.410;2022-07-18T04:37:36;5.07;;;3.97;;
13388;SDS011;6764;53.250;10.410;2022-07-18T04:40:03;6.87;;;3.93;;
13388;SDS011;6764;53.250;10.410;2022-07-18T04:42:29;4.63;;;3.90;;
13388;SDS011;6764;53.250;10.410;2022-07-18T04:44:57;5.90;;;4.00;;
13388;SDS011;6764;53.250;10.410;2022-07-18T04:47:24;4.57;;;4.17;;
13388;SDS011;6764;53.250;10.410;2022-07-18T04:49:51;5.43;;;4.53;;
13388;SDS011;6764;53.250;10.410;2022-07-18T04:52:16;4.57;;;4.13;;
13388;SDS011;6764;53.250;10.410;2022-07-18T04:54:42;6.23;;;3.93;;
13388;SDS011;6764;53.250;10.410;2022-07-18T04:57:08;7.63;;;4.17;;
13388;SDS011;6764;53.250;10.410;2022-07-18T04:59:36;4.63;;;3.90;;
13388;SDS011;6764;53.250;10.410;2022-07-18T05:02:02;4.30;;;3.90;;
13388;SDS011;6764;53.250;10.410;2022-07-18T05:04:27;6.32;;;4.00;;
13388;SDS011;6764;53.250;10.410;2022-07-18T05:06:53;5.68;;;3.85;;
13388;SDS011;6764;53.250;10.410;2022-07-18T05:09:19;4.13;;;3.70;;
13388;SDS011;6764;53.250;10.410;2022-07-18T05:11:45;4.20;;;3.47;;
13388;SDS011;6764;53.250;10.410;2022-07-18T05:14:11;6.20;;;3.40;;
13388;SDS011;6764;53.250;10.410;2022-07-18T05:16:36;5.70;;;3.73;;
13388;SDS011;6764;53.250;10.410;2022-07-18T05:19:02;6.45;;;4.38;;
13388;SDS011;6764;53.250;10.410;2022-07-18T05:21:27;4.40;;;4.00;;
13388;SDS011;6764;53.250;10.410;2022-07-18T05:23:53;5.22;;;3.40;;
13388;SDS011;6764;53.250;10.410;2022-07-18T05:26:19;4.83;;;3.70;;
13388;SDS011;6764;53.250;10.410;2022-07-18T05:28:44;5.55;;;3.55;;
13388;SDS011;6764;53.250;10.410;2022-07-18T05:31:11;4.15;;;3.50;;
13388;SDS011;6764;53.250;10.410;2022-07-18T05:33:36;5.68;;;3.47;;
13388;SDS011;6764;53.250;10.410;2022-07-18T05:36:02;5.18;;;3.53;;
13388;SDS011;6764;53.250;10.410;2022-07-18T05:38:29;3.58;;;3.25;;
13388;SDS011;6764;53.250;10.410;2022-07-18T05:40:54;12.52;;;4.55;;
13388;SDS011;6764;53.250;10.410;2022-07-18T05:43:20;5.60;;;3.28;;
13388;SDS011;6764;53.250;10.410;2022-07-18T05:45:46;4.05;;;3.60;;
13388;SDS011;6764;53.250;10.410;2022-07-18T05:48:11;9.02;;;4.60;;
13388;SDS011;6764;53.250;10.410;2022-07-18T05:50:37;6.80;;;3.72;;
13388;SDS011;6764;53.250;10.410;2022-07-18T05:53:02;7.30;;;3.97;;
13388;SDS011;6764;53.250;10.410;2022-07-18T05:55:28;7.65;;;3.70;;
13388;SDS011;6764;53.250;10.410;2022-07-18T05:57:54;5.97;;;3.33;;
13388;SDS011;6764;53.250;10.410;2022-07-18T06:00:19;4.57;;;3.38;;
13388;SDS011;6764;53.250;10.410;2022-07-18T06:02:49;9.57;;;3.53;;
13388;SDS011;6764;53.250;10.410;2022-07-18T06:05:16;4.72;;;3.25;;
13388;SDS011;6764;53.250;10.410;2022-07-18T06:07:42;4.97;;;3.42;;
13388;SDS011;6764;53.250;10.410;2022-07-18T06:10:07;6.47;;;3.10;;
13388;SDS011;6764;53.250;10.410;2022-07-18T06:12:34;4.47;;;3.00;;
13388;SDS011;6764;53.250;10.410;2022-07-18T06:15:00;3.63;;;3.05;;
13388;SDS011;6764;53.250;10.410;2022-07-18T06:17:26;3.28;;;2.90;;
13388;SDS011;6764;53.250;10.410;2022-07-18T06:19:55;3.13;;;2.83;;
13388;SDS011;6764;53.250;10.410;2022-07-18T06:22:22;4.53;;;3.03;;
13388;SDS011;6764;53.250;10.410;2022-07-18T06:24:47;6.35;;;3.83;;
13388;SDS011;6764;53.250;10.410;2022-07-18T06:27:13;6.55;;;3.08;;
13388;SDS011;6764;53.250;10.410;2022-07-18T06:29:39;3.97;;;3.13;;
13388;SDS011;6764;53.250;10.410;2022-07-18T06:32:05;4.30;;;2.88;;
13388;SDS011;6764;53.250;10.410;2022-07-18T06:34:31;4.30;;;3.15;;
13388;SDS011;6764;53.250;10.410;2022-07-18T06:36:56;3.42;;;2.80;;
13388;SDS011;6764;53.250;10.410;2022-07-18T06:39:22;3.67;;;2.90;;
13388;SDS011;6764;53.250;10.410;2022-07-18T06:41:47;4.20;;;3.10;;
13388;SDS011;6764;53.250;10.410;2022-07-18T06:44:13;3.22;;;2.70;;
13388;SDS011;6764;53.250;10.410;2022-07-18T06:46:39;3.95;;;2.47;;
13388;SDS011;6764;53.250;10.410;2022-07-18T06:49:05;4.70;;;2.58;;
13388;SDS011;6764;53.250;10.410;2022-07-18T06:51:31;5.40;;;2.67;;
13388;SDS011;6764;53.250;10.410;2022-07-18T06:53:57;7.63;;;2.85;;
13388;SDS011;6764;53.250;10.410;2022-07-18T06:56:23;3.50;;;2.80;;
13388;SDS011;6764;53.250;10.410;2022-07-18T06:58:48;2.80;;;2.60;;
13388;SDS011;6764;53.250;10.410;2022-07-18T07:01:15;3.55;;;2.70;;
13388;SDS011;6764;53.250;10.410;2022-07-18T07:03:42;6.13;;;2.88;;
13388;SDS011;6764;53.250;10.410;2022-07-18T07:06:08;2.78;;;2.42;;
13388;SDS011;6764;53.250;10.410;2022-07-18T07:08:33;7.38;;;2.80;;
13388;SDS011;6764;53.250;10.410;2022-07-18T07:10:59;4.47;;;3.13;;
13388;SDS011;6764;53.250;10.410;2022-07-18T07:13:25;4.55;;;2.65;;
13388;SDS011;6764;53.250;10.410;2022-07-18T07:15:51;3.00;;;2.30;;
13388;SDS011;6764;53.250;10.410;2022-07-18T07:18:16;5.20;;;2.55;;
13388;SDS011;6764;53.250;10.410;2022-07-18T07:20:42;4.05;;;2.58;;
13388;SDS011;6764;53.250;10.410;2022-07-18T07:23:08;3.15;;;2.40;;
13388;SDS011;6764;53.250;10.410;2022-07-18T07:25:34;6.43;;;2.30;;
13388;SDS011;6764;53.250;10.410;2022-07-18T07:28:02;3.67;;;2.38;;
13388;SDS011;6764;53.250;10.410;2022-07-18T07:30:29;5.28;;;2.55;;
13388;SDS011;6764;53.250;10.410;2022-07-18T07:32:55;3.70;;;2.47;;
13388;SDS011;6764;53.250;10.410;2022-07-18T07:35:21;5.85;;;2.95;;
13388;SDS011;6764;53.250;10.410;2022-07-18T07:37:48;2.63;;;2.40;;
13388;SDS011;6764;53.250;10.410;2022-07-18T07:40:16;3.70;;;2.60;;
13388;SDS011;6764;53.250;10.410;2022-07-18T07:42:42;5.90;;;2.88;;
13388;SDS011;6764;53.250;10.410;2022-07-18T07:45:09;2.90;;;2.60;;
13388;SDS011;6764;53.250;10.410;2022-07-18T07:47:36;4.18;;;3.28;;
13388;SDS011;6764;53.250;10.410;2022-07-18T07:50:03;6.15;;;2.83;;
13388;SDS011;6764;53.250;10.410;2022-07-18T07:52:30;4.70;;;3.25;;
13388;SDS011;6764;53.250;10.410;2022-07-18T07:54:55;5.78;;;2.63;;
13388;SDS011;6764;53.250;10.410;2022-07-18T07:57:24;3.60;;;2.80;;
13388;SDS011;6764;53.250;10.410;2022-07-18T07:59:50;4.10;;;3.17;;
13388;SDS011;6764;53.250;10.410;2022-07-18T08:02:16;3.42;;;2.90;;
13388;SDS011;6764;53.250;10.410;2022-07-18T08:04:43;4.38;;;3.60;;
13388;SDS011;6764;53.250;10.410;2022-07-18T08:07:09;5.70;;;3.38;;
13388;SDS011;6764;53.250;10.410;2022-07-18T08:09:36;3.35;;;2.90;;
13388;SDS011;6764;53.250;10.410;2022-07-18T08:12:02;5.03;;;2.90;;
13388;SDS011;6764;53.250;10.410;2022-07-18T08:14:28;5.55;;;3.00;;
13388;SDS011;6764;53.250;10.410;2022-07-18T08:16:54;5.40;;;3.30;;
13388;SDS011;6764;53.250;10.410;2022-07-18T08:19:19;5.43;;;3.47;;
13388;SDS011;6764;53.250;10.410;2022-07-18T08:21:45;6.80;;;3.22;;
13388;SDS011;6764;53.250;10.410;2022-07-18T08:24:10;5.90;;;3.65;;
13388;SDS011;6764;53.250;10.410;2022-07-18T08:26:36;6.50;;;4.25;;
13388;SDS011;6764;53.250;10.410;2022-07-18T08:29:04;5.35;;;3.92;;
13388;SDS011;6764;53.250;10.410;2022-07-18T08:31:30;5.75;;;4.47;;
13388;SDS011;6764;53.250;10.410;2022-07-18T08:33:56;5.13;;;4.68;;
13388;SDS011;6764;53.250;10.410;2022-07-18T08:36:22;6.90;;;4.90;;
13388;SDS011;6764;53.250;10.410;2022-07-18T08:38:48;5.95;;;4.50;;
13388;SDS011;6764;53.250;10.410;2022-07-18T08:41:14;7.82;;;4.80;;
13388;SDS011;6764;53.250;10.410;2022-07-18T08:43:41;7.22;;;4.30;;
13388;SDS011;6764;53.250;10.410;2022-07-18T08:46:08;5.15;;;4.45;;
13388;SDS011;6764;53.250;10.410;2022-07-18T08:48:35;5.35;;;4.07;;
13388;SDS011;6764;53.250;10.410;2022-07-18T08:51:02;6.45;;;4.60;;
13388;SDS011;6764;53.250;10.410;2022-07-18T08:53:27;5.47;;;4.30;;
13388;SDS011;6764;53.250;10.410;2022-07-18T08:55:53;5.28;;;4.50;;
13388;SDS011;6764;53.250;10.410;2022-07-18T08:58:20;5.78;;;4.28;;
13388;SDS011;6764;53.250;10.410;2022-07-18T09:00:46;5.00;;;4.07;;
13388;SDS011;6764;53.250;10.410;2022-07-18T09:03:12;7.43;;;4.70;;
13388;SDS011;6764;53.250;10.410;2022-07-18T09:05:38;4.25;;;3.85;;
13388;SDS011;6764;53.250;10.410;2022-07-18T09:08:13;5.70;;;4.10;;
13388;SDS011;6764;53.250;10.410;2022-07-18T09:10:51;4.20;;;3.90;;
13388;SDS011;6764;53.250;10.410;2022-07-18T09:13:19;4.55;;;3.67;;
13388;SDS011;6764;53.250;10.410;2022-07-18T09:18:31;4.50;;;4.00;;
13388;SDS011;6764;53.250;10.410;2022-07-18T09:20:59;4.82;;;3.65;;
13388;SDS011;6764;53.250;10.410;2022-07-18T09:23:30;3.95;;;3.38;;
13388;SDS011;6764;53.250;10.410;2022-07-18T09:25:57;4.93;;;3.60;;
13388;SDS011;6764;53.250;10.410;2022-07-18T09:28:25;4.20;;;3.60;;
13388;SDS011;6764;53.250;10.410;2022-07-18T09:30:54;6.07;;;3.65;;
13388;SDS011;6764;53.250;10.410;2022-07-18T09:33:21;5.65;;;3.90;;
13388;SDS011;6764;53.250;10.410;2022-07-18T09:35:48;5.93;;;4.00;;
13388;SDS011;6764;53.250;10.410;2022-07-18T09:38:28;8.02;;;3.92;;
13388;SDS011;6764;53.250;10.410;2022-07-18T09:40:54;3.90;;;3.47;;
13388;SDS011;6764;53.250;10.410;2022-07-18T09:43:23;3.97;;;3.67;;
13388;SDS011;6764;53.250;10.410;2022-07-18T09:45:50;5.05;;;4.10;;
13388;SDS011;6764;53.250;10.410;2022-07-18T09:48:19;8.75;;;4.25;;
13388;SDS011;6764;53.250;10.410;2022-07-18T09:50:56;6.20;;;3.92;;
13388;SDS011;6764;53.250;10.410;2022-07-18T09:53:25;8.57;;;4.30;;
13388;SDS011;6764;53.250;10.410;2022-07-18T09:55:56;6.35;;;4.20;;
13388;SDS011;6764;53.250;10.410;2022-07-18T09:58:26;4.68;;;4.18;;
13388;SDS011;6764;53.250;10.410;2022-07-18T10:00:54;5.25;;;4.18;;
13388;SDS011;6764;53.250;10.410;2022-07-18T10:03:21;5.57;;;4.00;;
13388;SDS011;6764;53.250;10.410;2022-07-18T10:05:48;4.80;;;4.28;;
13388;SDS011;6764;53.250;10.410;2022-07-18T10:08:19;6.25;;;4.38;;
13388;SDS011;6764;53.250;10.410;2022-07-18T10:10:47;5.28;;;4.22;;
13388;SDS011;6764;53.250;10.410;2022-07-18T10:13:14;4.97;;;4.30;;
13388;SDS011;6764;53.250;10.410;2022-07-18T10:15:42;5.00;;;4.43;;
13388;SDS011;6764;53.250;10.410;2022-07-18T10:18:09;6.78;;;4.07;;
13388;SDS011;6764;53.250;10.410;2022-07-18T10:23:13;7.18;;;3.50;;
13388;SDS011;6764;53.250;10.410;2022-07-18T10:26:04;5.75;;;5.15;;
13388;SDS011;6764;53.250;10.410;2022-07-18T10:31:31;4.30;;;3.60;;
13388;SDS011;6764;53.250;10.410;2022-07-18T10:36:32;4.32;;;3.90;;
13388;SDS011;6764;53.250;10.410;2022-07-18T10:41:34;6.45;;;3.65;;
13388;SDS011;6764;53.250;10.410;2022-07-18T11:00:38;4.47;;;3.72;;
13388;SDS011;6764;53.250;10.410;2022-07-18T11:03:05;5.40;;;3.40;;
13388;SDS011;6764;53.250;10.410;2022-07-18T11:05:33;5.13;;;3.70;;
13388;SDS011;6764;53.250;10.410;2022-07-18T11:23:47;4.50;;;3.13;;
13388;SDS011;6764;53.250;10.410;2022-07-18T11:26:14;6.32;;;3.10;;
13388;SDS011;6764;53.250;10.410;2022-07-18T11:28:45;4.55;;;3.15;;
13388;SDS011;6764;53.250;10.410;2022-07-18T11:31:13;5.00;;;2.95;;
13388;SDS011;6764;53.250;10.410;2022-07-18T11:33:43;5.80;;;3.33;;
13388;SDS011;6764;53.250;10.410;2022-07-18T11:36:14;7.03;;;3.53;;
13388;SDS011;6764;53.250;10.410;2022-07-18T11:38:51;5.97;;;3.17;;
13388;SDS011;6764;53.250;10.410;2022-07-18T11:41:19;4.45;;;3.20;;
13388;SDS011;6764;53.250;10.410;2022-07-18T11:43:46;4.53;;;2.80;;
13388;SDS011;6764;53.250;10.410;2022-07-18T11:49:27;4.13;;;2.78;;
13388;SDS011;6764;53.250;10.410;2022-07-18T11:51:52;5.60;;;2.90;;
13388;SDS011;6764;53.250;10.410;2022-07-18T11:54:21;3.08;;;2.80;;
13388;SDS011;6764;53.250;10.410;2022-07-18T11:56:49;5.97;;;3.17;;
13388;SDS011;6764;53.250;10.410;2022-07-18T11:59:17;3.35;;;3.00;;
13388;SDS011;6764;53.250;10.410;2022-07-18T12:01:44;2.97;;;2.78;;
13388;SDS011;6764;53.250;10.410;2022-07-18T12:04:23;5.22;;;2.78;;
13388;SDS011;6764;53.250;10.410;2022-07-18T12:09:40;6.15;;;2.95;;
13388;SDS011;6764;53.250;10.410;2022-07-18T12:12:13;4.85;;;3.22;;
13388;SDS011;6764;53.250;10.410;2022-07-18T12:14:39;3.65;;;2.67;;
13388;SDS011;6764;53.250;10.410;2022-07-18T12:17:05;6.32;;;3.42;;
13388;SDS011;6764;53.250;10.410;2022-07-18T12:19:38;4.47;;;3.75;;
13388;SDS011;6764;53.250;10.410;2022-07-18T12:24:35;5.22;;;2.70;;
13388;SDS011;6764;53.250;10.410;2022-07-18T12:27:17;3.33;;;2.88;;
13388;SDS011;6764;53.250;10.410;2022-07-18T12:32:29;4.45;;;2.92;;
13388;SDS011;6764;53.250;10.410;2022-07-18T12:37:53;4.53;;;3.08;;
13388;SDS011;6764;53.250;10.410;2022-07-18T12:40:27;4.82;;;3.10;;
13388;SDS011;6764;53.250;10.410;2022-07-18T12:43:13;4.50;;;2.58;;
13388;SDS011;6764;53.250;10.410;2022-07-18T12:46:00;4.57;;;2.80;;
13388;SDS011;6764;53.250;10.410;2022-07-18T12:48:27;5.90;;;2.70;;
13388;SDS011;6764;53.250;10.410;2022-07-18T12:51:01;4.03;;;2.60;;
13388;SDS011;6764;53.250;10.410;2022-07-18T12:53:32;3.85;;;2.80;;
13388;SDS011;6764;53.250;10.410;2022-07-18T12:55:59;4.85;;;3.17;;
13388;SDS011;6764;53.250;10.410;2022-07-18T12:58:25;5.15;;;3.20;;
13388;SDS011;6764;53.250;10.410;2022-07-18T13:00:51;2.97;;;2.67;;
13388;SDS011;6764;53.250;10.410;2022-07-18T13:03:16;3.50;;;2.90;;
13388;SDS011;6764;53.250;10.410;2022-07-18T13:05:42;5.40;;;2.90;;
13388;SDS011;6764;53.250;10.410;2022-07-18T13:08:09;4.00;;;2.30;;
13388;SDS011;6764;53.250;10.410;2022-07-18T13:10:35;3.55;;;2.67;;
13388;SDS011;6764;53.250;10.410;2022-07-18T13:13:05;4.63;;;2.58;;
13388;SDS011;6764;53.250;10.410;2022-07-18T13:15:31;3.25;;;2.25;;
13388;SDS011;6764;53.250;10.410;2022-07-18T13:17:57;3.85;;;2.20;;
13388;SDS011;6764;53.250;10.410;2022-07-18T13:20:23;4.15;;;2.55;;
13388;SDS011;6764;53.250;10.410;2022-07-18T13:22:50;6.32;;;2.33;;
13388;SDS011;6764;53.250;10.410;2022-07-18T13:25:15;3.38;;;2.30;;
13388;SDS011;6764;53.250;10.410;2022-07-18T13:27:41;2.75;;;2.30;;
13388;SDS011;6764;53.250;10.410;2022-07-18T13:30:07;3.30;;;2.10;;
13388;SDS011;6764;53.250;10.410;2022-07-18T13:32:34;7.50;;;2.58;;
13388;SDS011;6764;53.250;10.410;2022-07-18T13:35:00;3.67;;;2.40;;
13388;SDS011;6764;53.250;10.410;2022-07-18T13:37:27;2.33;;;2.13;;
13388;SDS011;6764;53.250;10.410;2022-07-18T13:39:52;3.75;;;2.30;;
13388;SDS011;6764;53.250;10.410;2022-07-18T13:42:18;2.17;;;1.77;;
13388;SDS011;6764;53.250;10.410;2022-07-18T13:44:44;4.72;;;1.88;;
13388;SDS011;6764;53.250;10.410;2022-07-18T13:47:13;2.42;;;2.00;;
13388;SDS011;6764;53.250;10.410;2022-07-18T13:49:39;4.15;;;2.20;;
13388;SDS011;6764;53.250;10.410;2022-07-18T13:52:05;4.53;;;1.80;;
13388;SDS011;6764;53.250;10.410;2022-07-18T13:54:30;4.53;;;1.90;;
13388;SDS011;6764;53.250;10.410;2022-07-18T13:56:56;8.80;;;4.55;;
13388;SDS011;6764;53.250;10.410;2022-07-18T13:59:22;2.80;;;2.03;;
13388;SDS011;6764;53.250;10.410;2022-07-18T14:01:47;7.57;;;5.10;;
13388;SDS011;6764;53.250;10.410;2022-07-18T14:04:14;3.75;;;2.40;;
13388;SDS011;6764;53.250;10.410;2022-07-18T14:06:40;2.30;;;2.10;;
13388;SDS011;6764;53.250;10.410;2022-07-18T14:09:06;2.80;;;2.00;;
13388;SDS011;6764;53.250;10.410;2022-07-18T14:11:32;3.22;;;1.95;;
13388;SDS011;6764;53.250;10.410;2022-07-18T14:14:01;2.47;;;2.05;;
13388;SDS011;6764;53.250;10.410;2022-07-18T14:16:28;4.72;;;2.00;;
13388;SDS011;6764;53.250;10.410;2022-07-18T14:18:55;2.83;;;2.40;;
13388;SDS011;6764;53.250;10.410;2022-07-18T14:21:20;2.78;;;2.38;;
13388;SDS011;6764;53.250;10.410;2022-07-18T14:23:47;3.03;;;2.20;;
13388;SDS011;6764;53.250;10.410;2022-07-18T14:26:12;2.78;;;2.10;;
13388;SDS011;6764;53.250;10.410;2022-07-18T14:28:38;2.50;;;1.85;;
13388;SDS011;6764;53.250;10.410;2022-07-18T14:31:04;2.22;;;2.03;;
13388;SDS011;6764;53.250;10.410;2022-07-18T14:33:30;2.80;;;2.05;;
13388;SDS011;6764;53.250;10.410;2022-07-18T14:35:56;3.58;;;2.30;;
13388;SDS011;6764;53.250;10.410;2022-07-18T14:38:21;3.78;;;2.10;;
13388;SDS011;6764;53.250;10.410;2022-07-18T14:40:47;2.60;;;2.13;;
13388;SDS011;6764;53.250;10.410;2022-07-18T14:43:12;3.33;;;2.05;;
13388;SDS011;6764;53.250;10.410;2022-07-18T14:45:38;5.32;;;2.13;;
13388;SDS011;6764;53.250;10.410;2022-07-18T14:48:04;3.63;;;2.10;;
13388;SDS011;6764;53.250;10.410;2022-07-18T14:50:30;2.47;;;1.85;;
13388;SDS011;6764;53.250;10.410;2022-07-18T14:52:55;2.45;;;2.13;;
13388;SDS011;6764;53.250;10.410;2022-07-18T14:55:21;3.85;;;2.10;;
13388;SDS011;6764;53.250;10.410;2022-07-18T14:57:47;3.25;;;2.00;;
13388;SDS011;6764;53.250;10.410;2022-07-18T15:00:12;4.18;;;2.40;;
13388;SDS011;6764;53.250;10.410;2022-07-18T15:02:38;8.30;;;2.30;;
13388;SDS011;6764;53.250;10.410;2022-07-18T15:05:05;4.75;;;2.90;;
13388;SDS011;6764;53.250;10.410;2022-07-18T15:07:32;3.75;;;2.20;;
13388;SDS011;6764;53.250;10.410;2022-07-18T15:09:58;3.05;;;1.95;;
13388;SDS011;6764;53.250;10.410;2022-07-18T15:12:24;2.58;;;2.00;;
13388;SDS011;6764;53.250;10.410;2022-07-18T15:14:50;3.03;;;1.88;;
13388;SDS011;6764;53.250;10.410;2022-07-18T15:17:19;4.80;;;2.63;;
13388;SDS011;6764;53.250;10.410;2022-07-18T15:19:46;4.35;;;2.03;;
13388;SDS011;6764;53.250;10.410;2022-07-18T15:22:11;2.97;;;2.08;;
13388;SDS011;6764;53.250;10.410;2022-07-18T15:24:37;4.28;;;2.05;;
13388;SDS011;6764;53.250;10.410;2022-07-18T15:27:03;2.30;;;2.10;;
13388;SDS011;6764;53.250;10.410;2022-07-18T15:29:28;3.35;;;2.10;;
13388;SDS011;6764;53.250;10.410;2022-07-18T15:31:54;3.65;;;2.45;;
13388;SDS011;6764;53.250;10.410;2022-07-18T15:34:19;3.80;;;2.45;;
13388;SDS011;6764;53.250;10.410;2022-07-18T15:36:45;3.50;;;2.20;;
13388;SDS011;6764;53.250;10.410;2022-07-18T15:39:10;3.10;;;2.20;;
13388;SDS011;6764;53.250;10.410;2022-07-18T15:41:36;3.00;;;2.20;;
13388;SDS011;6764;53.250;10.410;2022-07-18T15:44:02;5.22;;;2.20;;
13388;SDS011;6764;53.250;10.410;2022-07-18T15:46:27;3.20;;;2.20;;